Terminal Aerodrome Forecast
Issued by NWS Shreveport, LA

Home | Current Version | Previous Version | Text Only | Print | Product List | Glossary On
Versions: 1 2 3 4 5 6 7 8 9 10 11 12 13 14 15 16 17
000
FTUS44 KSHV 190800 AAA
TAFGGG
TAF AMD
KGGG 190826Z 1908/2006 00000KT P6SM BKN250
      TEMPO 1910/1913 3SM BR OVC004
     FM191300 11006KT P6SM SCT015
      TEMPO 1913/1915 BKN008
     FM191600 11006KT P6SM BKN035=

USA.gov is the U.S. government's official web portal to all federal, state and local government web resources and services.